Time;durP1;ratioP1;P1;durP2;ratioP2;P2;SDS_P1;SDS_P2;PMS_P1;PMS_P2;Temp;Humidity;BMP_temperature;BMP_pressure;BME280_temperature;BME280_humidity;BME280_pressure;Samples;Min_cycle;Max_cycle;Signal;HPM_P1;HPM_P2
2022/04/26 05:25:37;;;;;;;;;10.50;10.00;;;;;12.17;76.38;99006.13;5043265;28;45466;-64
2022/04/26 05:28:04;;;;;;;;;11.00;9.50;;;;;12.23;76.38;98994.41;5050758;28;45551;-64
2022/04/26 05:30:29;;;;;;;;;11.75;9.50;;;;;12.30;75.95;99010.78;5056299;28;45538;-64
2022/04/26 05:32:55;;;;;;;;;11.00;10.00;;;;;12.37;75.84;99009.56;5055354;28;45464;-64
2022/04/26 05:35:22;;;;;;;;;8.00;8.00;;;;;12.45;75.61;99010.91;5055806;28;45479;-65
2022/04/26 05:37:48;;;;;;;;;15.75;12.50;;;;;12.50;75.49;99014.19;5054977;28;45439;-64
2022/04/26 05:40:13;;;;;;;;;15.75;13.25;;;;;12.53;75.31;99011.38;5054932;28;45432;-65
2022/04/26 05:42:39;;;;;;;;;9.75;9.75;;;;;12.59;75.66;99020.78;5055565;28;46696;-65
2022/04/26 05:45:05;;;;;;;;;11.75;9.75;;;;;12.66;75.24;99016.06;5037525;28;45471;-66
2022/04/26 05:47:30;;;;;;;;;10.00;10.00;;;;;12.73;75.27;99012.19;5051014;28;45385;-66
2022/04/26 05:49:56;;;;;;;;;10.00;9.00;;;;;12.79;75.06;99012.72;5036393;28;45561;-65
2022/04/26 05:52:24;;;;;;;;;12.00;10.25;;;;;12.87;74.77;99015.84;5052678;28;45385;-65
2022/04/26 05:54:50;;;;;;;;;9.25;8.50;;;;;12.94;74.69;99025.16;5035356;28;45447;-66
2022/04/26 05:57:15;;;;;;;;;12.00;12.00;;;;;13.01;74.68;99016.91;5054236;28;45518;-66
2022/04/26 05:59:41;;;;;;;;;10.50;10.50;;;;;13.11;74.35;99026.06;5054378;28;45596;-66
2022/04/26 06:02:15;;;;;;;;;12.25;11.25;;;;;13.19;74.26;99026.56;5053964;28;46240;-65
2022/04/26 06:04:41;;;;;;;;;9.25;9.25;;;;;13.27;73.71;99033.16;5036048;28;45452;-65
2022/04/26 06:07:07;;;;;;;;;11.00;10.75;;;;;13.34;73.52;99014.31;5054732;28;45283;-65
2022/04/26 06:09:32;;;;;;;;;11.25;8.75;;;;;13.39;73.43;99028.19;5034205;28;45657;-65
2022/04/26 06:11:58;;;;;;;;;17.75;17.25;;;;;13.45;73.19;99019.91;5054570;28;45853;-65
2022/04/26 06:14:24;;;;;;;;;12.50;10.75;;;;;13.50;72.68;99023.16;5051954;28;45524;-65
2022/04/26 06:16:49;;;;;;;;;8.75;8.00;;;;;13.55;72.66;99026.44;5055107;28;45483;-66
2022/04/26 06:19:15;;;;;;;;;10.50;9.25;;;;;13.62;72.36;99030.44;5047202;28;45492;-65
2022/04/26 06:21:40;;;;;;;;;13.25;11.00;;;;;13.66;72.28;99023.19;5054759;28;45388;-66
2022/04/26 06:24:06;;;;;;;;;12.25;12.25;;;;;13.71;72.08;99034.41;5050806;28;45338;-66
2022/04/26 06:26:31;;;;;;;;;12.75;11.25;;;;;13.75;71.67;99031.47;5053073;28;45461;-66
2022/04/26 06:28:57;;;;;;;;;15.00;11.75;;;;;13.80;71.77;99037.41;5052343;28;45420;-66
2022/04/26 06:31:22;;;;;;;;;10.50;10.00;;;;;13.84;71.27;99033.66;5054543;28;45488;-66
2022/04/26 06:33:48;;;;;;;;;11.75;10.75;;;;;13.88;71.07;99039.63;5049940;28;45461;-67
2022/04/26 06:36:13;;;;;;;;;10.25;10.25;;;;;13.93;70.41;99042.88;5052732;28;45452;-66
2022/04/26 06:38:38;;;;;;;;;12.75;12.25;;;;;13.90;70.59;99043.91;5049653;28;45373;-66
2022/04/26 06:41:04;;;;;;;;;12.00;12.00;;;;;13.88;70.55;99043.16;5035918;28;45706;-66
2022/04/26 06:43:32;;;;;;;;;13.50;11.50;;;;;13.89;70.47;99033.41;5047643;28;45503;-68
2022/04/26 06:45:58;;;;;;;;;14.25;13.00;;;;;13.92;70.48;99043.81;5053701;28;45322;-68
2022/04/26 06:48:24;;;;;;;;;14.25;13.00;;;;;13.95;70.08;99041.00;5052107;28;45622;-68
2022/04/26 06:50:49;;;;;;;;;16.00;14.25;;;;;14.04;70.19;99043.16;5053553;28;45529;-68
2022/04/26 06:53:15;;;;;;;;;11.50;9.75;;;;;14.12;70.11;99042.72;5052058;28;45477;-68
2022/04/26 06:55:50;;;;;;;;;13.00;12.50;;;;;14.18;69.90;99047.69;5046006;28;45401;-69
2022/04/26 06:58:24;;;;;;;;;12.50;12.25;;;;;14.27;69.66;99045.34;5054348;28;45314;-69
2022/04/26 07:00:50;;;;;;;;;15.50;15.00;;;;;14.36;69.56;99044.00;5035861;28;47047;-68
2022/04/26 07:03:15;;;;;;;;;15.25;12.50;;;;;14.46;69.29;99036.41;5046281;28;45309;-69
2022/04/26 07:05:41;;;;;;;;;18.50;15.75;;;;;14.57;68.55;99036.66;5028859;28;45616;-69
2022/04/26 07:08:07;;;;;;;;;6.75;6.75;;;;;14.65;68.29;99037.91;5050399;28;45482;-69
2022/04/26 07:10:32;;;;;;;;;13.75;12.00;;;;;14.71;68.22;99033.19;5047582;28;45496;-69
2022/04/26 07:12:58;;;;;;;;;13.50;11.75;;;;;14.80;67.61;99037.94;5052225;28;45516;-69
2022/04/26 07:15:25;;;;;;;;;14.25;13.00;;;;;14.90;67.36;99032.03;5053157;28;45360;-69
2022/04/26 07:17:50;;;;;;;;;13.75;13.00;;;;;14.98;67.24;99031.56;5047809;28;45347;-69
2022/04/26 07:20:15;;;;;;;;;13.75;13.00;;;;;15.06;66.61;99042.59;5052556;28;46384;-69
2022/04/26 07:22:41;;;;;;;;;13.00;12.00;;;;;15.11;66.35;99035.19;5047165;28;45624;-70
2022/04/26 07:25:08;;;;;;;;;13.50;12.75;;;;;15.20;65.98;99034.66;5050301;28;45388;-69
2022/04/26 07:27:34;;;;;;;;;13.25;12.00;;;;;15.23;65.62;99039.78;5053200;28;45373;-69
2022/04/26 07:30:09;;;;;;;;;11.50;11.50;;;;;15.25;65.31;99029.88;5052990;28;45626;-69
2022/04/26 07:35:19;;;;;;;;;11.25;11.25;;;;;15.32;64.77;99041.00;5052815;28;45395;-69
2022/04/26 07:37:44;;;;;;;;;11.25;11.25;;;;;15.42;65.19;99038.63;5049179;28;45373;-69
2022/04/26 07:40:10;;;;;;;;;12.25;12.25;;;;;15.52;64.74;99038.00;5053446;28;45508;-69
2022/04/26 07:42:36;;;;;;;;;12.00;11.25;;;;;15.59;64.12;99034.03;5051271;28;45392;-69
2022/04/26 07:45:02;;;;;;;;;14.25;12.50;;;;;15.62;64.03;99035.66;5052752;28;45483;-69
2022/04/26 07:47:30;;;;;;;;;14.75;13.25;;;;;15.69;64.30;99040.50;5050982;28;45598;-69
2022/04/26 07:49:57;;;;;;;;;13.00;13.00;;;;;15.79;64.05;99034.59;5034916;28;46766;-69
2022/04/26 07:52:32;;;;;;;;;16.00;13.75;;;;;15.90;63.51;99042.78;5051865;28;45405;-69
2022/04/26 07:54:58;;;;;;;;;16.00;15.75;;;;;16.01;63.33;99043.78;5053494;28;45443;-69
2022/04/26 07:57:23;;;;;;;;;13.25;12.75;;;;;16.13;63.11;99038.63;5053344;28;45475;-66
2022/04/26 07:59:49;;;;;;;;;13.75;12.50;;;;;16.24;63.04;99039.69;5047669;28;45761;-65
2022/04/26 08:02:15;;;;;;;;;12.75;12.75;;;;;16.37;62.44;99039.72;5055438;28;45567;-66
2022/04/26 08:04:41;;;;;;;;;15.50;13.00;;;;;16.49;62.30;99044.25;5046531;28;45409;-66
2022/04/26 08:07:07;;;;;;;;;17.75;15.00;;;;;16.59;61.94;99044.50;5056866;28;45512;-66
2022/04/26 08:09:35;;;;;;;;;15.25;15.25;;;;;16.69;61.88;99053.63;5050077;28;46229;-69
2022/04/26 08:12:02;;;;;;;;;18.75;17.25;;;;;16.77;61.39;99053.94;5056778;28;45524;-68
2022/04/26 08:14:29;;;;;;;;;19.25;15.50;;;;;16.86;60.87;99049.84;5055954;28;45592;-69
2022/04/26 08:16:55;;;;;;;;;13.50;13.50;;;;;16.92;60.78;99050.28;5056453;28;45198;-69
2022/04/26 08:19:20;;;;;;;;;19.75;15.50;;;;;16.96;60.54;99054.44;5051735;28;45493;-67
2022/04/26 08:22:00;;;;;;;;;14.25;12.25;;;;;16.90;60.53;99056.66;5056541;28;45298;-65
2022/04/26 08:27:22;;;;;;;;;11.25;11.25;;;;;16.76;60.77;99054.91;5010321;28;45404;-65
2022/04/26 08:29:48;;;;;;;;;16.00;15.00;;;;;16.75;60.28;99061.22;5016633;28;46225;-65
2022/04/26 08:32:14;;;;;;;;;12.40;7.20;;;;;16.75;60.75;99053.22;5015180;28;45406;-65
2022/04/26 08:34:41;;;;;;;;;13.50;13.00;;;;;16.73;60.70;99065.78;5015908;28;45415;-65
2022/04/26 08:37:16;;;;;;;;;18.00;16.50;;;;;16.68;59.71;99067.88;5017500;28;45540;-65
2022/04/26 08:39:41;;;;;;;;;15.00;14.00;;;;;16.61;60.14;99064.72;5005918;28;45668;-65
2022/04/26 08:42:07;;;;;;;;;17.50;17.00;;;;;16.56;60.53;99064.19;5009183;28;45719;-65
2022/04/26 08:44:34;;;;;;;;;17.75;14.50;;;;;16.53;61.23;99064.38;5015351;28;45365;-65
2022/04/26 08:52:45;;;;;;;;;13.60;12.00;;;;;16.40;61.12;99064.34;5015844;28;45331;-65
2022/04/26 08:55:10;;;;;;;;;11.00;11.00;;;;;16.44;60.61;99066.78;5013098;28;45405;-65
2022/04/26 08:57:36;;;;;;;;;12.00;12.00;;;;;16.43;60.79;99079.22;5015017;28;45184;-65
2022/04/26 09:00:05;;;;;;;;;11.00;9.50;;;;;16.38;60.52;99065.38;5015896;28;46238;-65
2022/04/26 09:02:31;;;;;;;;;12.80;12.80;;;;;16.31;60.48;99064.91;5014903;28;45550;-66
2022/04/26 09:05:17;;;;;;;;;12.25;11.00;;;;;16.26;60.33;99074.13;5015121;28;45485;-65
2022/04/26 09:07:48;;;;;;;;;13.50;13.00;;;;;16.22;59.82;99076.16;5012541;28;45579;-65
2022/04/26 09:10:18;;;;;;;;;9.75;8.50;;;;;16.20;59.79;99067.41;5013671;28;46045;-65
2022/04/26 09:13:09;;;;;;;;;8.60;7.60;;;;;16.24;60.15;99071.59;5012863;28;45373;-65
2022/04/26 09:15:45;;;;;;;;;9.00;9.00;;;;;16.35;59.34;99078.88;5026549;28;45594;-65
2022/04/26 09:18:26;;;;;;;;;5.00;5.00;;;;;16.40;58.53;99074.13;5009813;28;45460;-65
2022/04/26 09:20:53;;;;;;;;;11.25;11.00;;;;;16.47;58.68;99075.41;5016300;28;46376;-65
2022/04/26 09:23:27;;;;;;;;;11.20;8.20;;;;;16.56;59.26;99072.19;5031781;28;45570;-65
2022/04/26 09:26:07;;;;;;;;;8.25;7.50;;;;;16.64;59.03;99072.53;5046415;28;45500;-66
2022/04/26 09:28:34;;;;;;;;;11.00;8.00;;;;;16.80;58.73;99076.84;5046373;28;45509;-66
2022/04/26 09:30:59;;;;;;;;;14.00;10.50;;;;;16.96;58.51;99072.22;5052280;28;45483;-66
2022/04/26 09:33:38;;;;;;;;;15.50;11.50;;;;;17.10;58.19;99069.47;5052164;28;45455;-66
2022/04/26 09:36:11;;;;;;;;;11.50;11.50;;;;;17.28;58.38;99075.38;5055969;28;45432;-68
2022/04/26 09:38:39;;;;;;;;;10.00;9.75;;;;;17.43;58.09;99071.66;5053356;28;45424;-69
2022/04/26 09:41:09;;;;;;;;;12.00;9.75;;;;;17.58;57.37;99067.09;5051200;28;45611;-69
2022/04/26 09:43:36;;;;;;;;;9.00;8.60;;;;;17.76;56.91;99066.66;5033047;28;45500;-68
2022/04/26 09:46:01;;;;;;;;;12.25;11.25;;;;;17.90;57.13;99063.06;5055822;28;45469;-69
2022/04/26 09:48:29;;;;;;;;;10.00;9.25;;;;;18.05;56.11;99074.44;5053729;28;45422;-69
2022/04/26 09:50:57;;;;;;;;;8.00;8.00;;;;;18.03;55.68;99074.56;5055282;28;46477;-69
2022/04/26 09:53:35;;;;;;;;;11.20;9.00;;;;;17.97;54.85;99058.97;5053848;28;45314;-69
2022/04/26 09:56:03;;;;;;;;;15.75;13.25;;;;;17.96;55.58;99072.41;5050516;28;45480;-66
2022/04/26 09:58:30;;;;;;;;;10.25;10.25;;;;;17.88;52.78;99058.78;5051554;28;45356;-66
2022/04/26 10:00:58;;;;;;;;;10.00;9.75;;;;;17.78;54.11;99059.41;5055582;28;46515;-66
2022/04/26 10:03:26;;;;;;;;;10.80;10.00;;;;;17.73;53.62;99069.56;5054979;28;45495;-66
2022/04/26 10:06:00;;;;;;;;;12.25;11.00;;;;;17.71;53.45;99060.81;5055525;28;45370;-66
2022/04/26 10:08:29;;;;;;;;;5.25;4.00;;;;;17.74;54.39;99067.75;5052853;28;45541;-66
2022/04/26 10:10:56;;;;;;;;;11.25;10.75;;;;;17.77;55.00;99070.19;5048511;28;45515;-65
2022/04/26 10:13:31;;;;;;;;;9.25;9.25;;;;;17.72;54.12;99078.53;5033064;28;45464;-66
2022/04/26 10:15:59;;;;;;;;;14.50;13.00;;;;;17.71;55.89;99073.31;5037469;28;45348;-66
2022/04/26 10:18:29;;;;;;;;;12.25;12.00;;;;;17.73;56.00;99077.56;5054083;28;45542;-66
2022/04/26 10:21:06;;;;;;;;;12.25;11.50;;;;;17.79;56.46;99071.78;5053923;28;47233;-66
2022/04/26 10:24:01;;;;;;;;;13.60;12.40;;;;;17.89;56.41;99071.16;5048416;28;45523;-66
2022/04/26 10:26:28;;;;;;;;;13.50;12.50;;;;;17.95;55.81;99073.38;5008060;28;45693;-66
2022/04/26 10:29:00;;;;;;;;;12.00;11.50;;;;;18.02;55.99;99074.66;5052009;28;45489;-66
2022/04/26 10:32:01;;;;;;;;;13.75;13.00;;;;;18.02;55.39;99072.84;5054467;28;45425;-66
2022/04/26 10:34:30;;;;;;;;;13.60;11.60;;;;;18.04;55.72;99073.59;5051997;28;45406;-66
2022/04/26 10:37:01;;;;;;;;;14.75;12.25;;;;;18.10;55.98;99073.13;5054340;28;45493;-66
2022/04/26 10:39:49;;;;;;;;;11.75;11.75;;;;;18.18;55.36;99074.41;5051817;28;45452;-66
2022/04/26 10:42:35;;;;;;;;;10.50;8.50;;;;;18.27;52.73;99069.25;5049852;28;46348;-66
2022/04/26 10:45:09;;;;;;;;;14.00;12.60;;;;;18.29;52.10;99070.00;5054429;28;45578;-66
2022/04/26 10:47:36;;;;;;;;;9.00;6.50;;;;;18.30;51.15;99073.50;5050276;28;45318;-66
2022/04/26 10:50:03;;;;;;;;;13.50;10.75;;;;;18.27;49.24;99076.41;5049856;28;45525;-66
2022/04/26 10:52:33;;;;;;;;;10.50;8.25;;;;;18.21;49.76;99069.72;5050576;28;45428;-66
2022/04/26 10:55:02;;;;;;;;;9.20;9.20;;;;;18.25;47.79;99079.22;5049307;28;45425;-66
2022/04/26 10:57:34;;;;;;;;;8.25;8.25;;;;;18.29;48.02;99074.47;5042135;28;45427;-66
2022/04/26 11:00:14;;;;;;;;;9.00;9.00;;;;;18.34;50.50;99073.19;5031795;28;45532;-66
2022/04/26 11:03:04;;;;;;;;;11.75;11.75;;;;;18.37;52.00;99075.66;5050626;28;46501;-66
2022/04/26 11:05:32;;;;;;;;;11.60;11.40;;;;;18.45;52.38;99069.72;5046461;28;45326;-66
2022/04/26 11:07:58;;;;;;;;;18.25;17.00;;;;;18.53;53.08;99072.72;5053827;28;45536;-66
2022/04/26 11:10:27;;;;;;;;;11.00;9.50;;;;;18.60;50.00;99067.81;5053127;28;45605;-66
2022/04/26 11:12:56;;;;;;;;;13.50;10.50;;;;;18.67;51.59;99071.72;5051190;28;45542;-66
2022/04/26 11:15:24;;;;;;;;;12.00;11.00;;;;;18.73;49.54;99069.47;5053439;28;45523;-66
2022/04/26 11:17:51;;;;;;;;;11.25;11.00;;;;;18.79;49.28;99074.31;5052574;28;45263;-66
2022/04/26 11:20:19;;;;;;;;;12.25;10.75;;;;;18.80;46.13;99077.84;5052893;28;45591;-66
2022/04/26 11:22:47;;;;;;;;;9.80;9.80;;;;;18.72;47.45;99064.22;5050570;28;45456;-66
2022/04/26 11:28:11;;;;;;;;;10.75;10.75;;;;;18.63;46.62;99065.75;5042692;28;45503;-66
2022/04/26 11:30:41;;;;;;;;;12.75;10.75;;;;;18.58;47.06;99072.38;5050903;28;45398;-66
2022/04/26 11:33:22;;;;;;;;;11.00;11.00;;;;;18.54;47.42;99070.88;5049551;28;45464;-66
2022/04/26 11:35:55;;;;;;;;;11.40;10.20;;;;;18.56;47.95;99061.81;5055613;28;45547;-66
2022/04/26 11:38:22;;;;;;;;;11.00;10.25;;;;;18.58;46.73;99083.91;5052321;28;45457;-66
2022/04/26 11:40:58;;;;;;;;;9.50;8.25;;;;;18.55;46.73;99072.59;5056378;28;45439;-66
2022/04/26 11:43:31;;;;;;;;;8.25;8.25;;;;;18.53;46.23;99058.50;5052659;28;45710;-66
2022/04/26 11:45:57;;;;;;;;;9.80;9.80;;;;;18.56;47.53;99071.63;5056934;28;45440;-66
2022/04/26 11:48:25;;;;;;;;;9.25;9.25;;;;;18.56;45.73;99064.47;5044648;28;45497;-66
2022/04/26 11:50:52;;;;;;;;;9.75;9.75;;;;;18.54;45.95;99055.72;5033920;28;45429;-66
2022/04/26 11:53:30;;;;;;;;;10.00;9.00;;;;;18.60;45.47;99055.28;5032690;28;47826;-66
2022/04/26 11:56:02;;;;;;;;;8.80;8.00;;;;;18.67;46.20;99061.03;5044638;28;45422;-66
2022/04/26 11:58:28;;;;;;;;;8.25;7.25;;;;;18.66;46.13;99048.66;5055025;28;45358;-66
2022/04/26 12:01:10;;;;;;;;;7.00;7.00;;;;;18.68;46.03;99042.22;5056737;28;45462;-66
2022/04/26 12:03:45;;;;;;;;;14.75;12.50;;;;;18.73;45.65;99033.88;5053583;28;45596;-66
2022/04/26 12:06:13;;;;;;;;;10.80;9.80;;;;;18.83;44.26;99051.75;5056683;28;45425;-66
2022/04/26 12:08:41;;;;;;;;;10.75;9.25;;;;;18.83;44.80;99037.56;5033339;28;45618;-66
2022/04/26 12:11:20;;;;;;;;;10.25;10.00;;;;;18.87;45.14;99043.53;5055975;28;45469;-65
2022/04/26 12:14:06;;;;;;;;;12.75;10.75;;;;;18.87;44.81;99038.19;5056580;28;46085;-65
2022/04/26 12:16:42;;;;;;;;;8.80;8.80;;;;;18.85;46.02;99050.81;5056566;28;45438;-65
2022/04/26 12:19:08;;;;;;;;;10.75;10.00;;;;;18.88;46.15;99043.41;5051064;28;45190;-65
2022/04/26 12:21:58;;;;;;;;;8.75;8.75;;;;;18.92;45.72;99030.69;5052373;28;45603;-67
2022/04/26 12:24:29;;;;;;;;;8.25;8.25;;;;;18.91;44.03;99045.00;5045302;28;46475;-66
2022/04/26 12:27:04;;;;;;;;;6.20;6.00;;;;;18.87;44.54;99041.72;5033093;28;45371;-65
2022/04/26 12:29:36;;;;;;;;;10.00;9.25;;;;;18.89;44.24;99029.09;5054586;28;45455;-66
2022/04/26 12:32:26;;;;;;;;;10.25;8.75;;;;;18.95;43.24;99030.41;5056809;28;45437;-66
2022/04/26 12:34:57;;;;;;;;;8.40;8.00;;;;;18.91;43.75;99026.31;5056658;28;45338;-65
2022/04/26 12:37:35;;;;;;;;;7.20;7.20;;;;;18.89;42.47;99028.25;5057040;28;45310;-65
2022/04/26 12:40:10;;;;;;;;;10.25;10.25;;;;;18.92;43.50;99026.19;5050276;28;45446;-65
2022/04/26 12:42:38;;;;;;;;;9.25;8.75;;;;;18.93;42.36;99035.91;5056469;28;45351;-65
2022/04/26 12:45:24;;;;;;;;;12.40;10.20;;;;;18.96;43.31;99018.78;5056254;28;45338;-65
2022/04/26 12:50:56;;;;;;;;;9.50;8.00;;;;;19.21;43.93;99007.06;5043734;28;45239;-65
2022/04/26 12:53:25;;;;;;;;;9.25;8.50;;;;;19.25;43.91;99013.88;5056580;28;45511;-66
2022/04/26 12:55:52;;;;;;;;;10.00;9.50;;;;;19.32;43.27;99009.75;5055135;28;46076;-64
2022/04/26 12:58:19;;;;;;;;;9.80;9.80;;;;;19.37;44.16;99004.91;5055838;28;45383;-64
2022/04/26 13:00:52;;;;;;;;;5.25;5.25;;;;;19.38;43.33;99012.81;5056497;28;45385;-64
2022/04/26 13:03:22;;;;;;;;;8.50;8.50;;;;;19.35;42.57;99022.88;5056243;28;45462;-65
2022/04/26 13:05:52;;;;;;;;;9.20;7.00;;;;;19.34;41.90;99000.66;5056116;28;46373;-68
2022/04/26 13:08:21;;;;;;;;;10.00;7.40;;;;;19.35;41.24;99002.34;5056546;28;45344;-66
2022/04/26 13:10:56;;;;;;;;;10.00;8.50;;;;;19.38;42.71;99004.78;5038349;28;45586;-66
2022/04/26 13:13:21;;;;;;;;;8.75;8.00;;;;;19.42;42.47;98995.56;5055478;28;45411;-66
2022/04/26 13:15:47;;;;;;;;;6.75;6.75;;;;;19.48;41.66;98986.19;5056082;28;46564;-66
2022/04/26 13:18:15;;;;;;;;;10.00;8.75;;;;;19.53;41.48;98997.41;5056476;28;45890;-66
2022/04/26 13:20:43;;;;;;;;;6.80;6.80;;;;;19.59;41.61;98988.94;5056239;28;45291;-66
2022/04/26 13:23:09;;;;;;;;;8.75;8.00;;;;;19.71;39.57;99000.47;5051213;28;45436;-66
2022/04/26 13:25:34;;;;;;;;;8.25;8.00;;;;;19.73;40.34;98986.00;5035906;28;46463;-66
2022/04/26 13:28:03;;;;;;;;;4.50;4.50;;;;;19.78;40.07;98983.78;5036185;28;45361;-66
2022/04/26 13:30:29;;;;;;;;;7.00;5.80;;;;;19.86;41.36;98972.47;5036084;28;45428;-66
2022/04/26 13:32:55;;;;;;;;;7.50;7.50;;;;;20.04;41.07;98989.75;5036031;28;45491;-66
2022/04/26 13:35:21;;;;;;;;;8.00;8.00;;;;;20.32;40.30;98974.94;5035699;28;45311;-66
2022/04/26 13:37:47;;;;;;;;;9.00;8.60;;;;;20.53;39.54;98983.91;5035096;28;45377;-67
2022/04/26 13:40:13;;;;;;;;;7.00;7.00;;;;;20.67;40.58;98969.38;5033683;28;45384;-66
2022/04/26 13:42:39;;;;;;;;;7.50;7.50;;;;;20.87;39.72;98978.41;5034041;28;45612;-66
2022/04/26 13:45:06;;;;;;;;;5.60;5.60;;;;;21.06;38.53;98981.22;5042428;28;45519;-66
2022/04/26 13:47:32;;;;;;;;;7.20;7.20;;;;;21.11;38.65;98962.06;5035886;28;45500;-66
2022/04/26 13:49:57;;;;;;;;;8.00;8.00;;;;;21.14;37.63;98970.69;5027359;28;45425;-66
2022/04/26 13:52:23;;;;;;;;;7.25;5.25;;;;;21.16;37.21;98975.91;5035215;28;45563;-65
2022/04/26 13:54:49;;;;;;;;;9.75;9.75;;;;;21.20;37.43;98961.31;5035059;28;46117;-64
2022/04/26 13:57:15;;;;;;;;;9.40;8.40;;;;;21.22;37.78;98951.31;5035251;28;45429;-65
2022/04/26 13:59:41;;;;;;;;;6.25;6.25;;;;;21.30;37.70;98951.47;5029484;28;45391;-64
2022/04/26 14:02:07;;;;;;;;;8.25;7.25;;;;;21.40;38.22;98944.34;5035177;28;45312;-65
2022/04/26 14:04:34;;;;;;;;;5.20;5.20;;;;;21.52;36.84;98932.53;5034207;28;47878;-65
2022/04/26 14:07:00;;;;;;;;;8.20;7.00;;;;;21.58;37.52;98953.47;5033797;28;45421;-65
2022/04/26 14:09:26;;;;;;;;;5.80;5.00;;;;;21.62;36.23;98959.38;5035377;28;45377;-65
2022/04/26 14:11:56;;;;;;;;;6.25;6.25;;;;;21.67;36.72;98949.09;5050581;28;45525;-66
2022/04/26 14:22:34;;;;;;;;;8.25;6.25;;;;;21.94;35.82;98946.66;5038553;28;45276;-65
2022/04/26 14:25:03;;;;;;;;;6.00;6.00;;;;;22.00;35.00;98963.22;5035216;28;45563;-64
2022/04/26 14:27:30;;;;;;;;;2.00;2.00;;;;;22.04;35.13;98956.59;5054240;28;45569;-65
2022/04/26 14:29:56;;;;;;;;;6.20;6.00;;;;;22.06;35.46;98928.63;5053999;28;45473;-65
2022/04/26 14:32:22;;;;;;;;;6.75;6.25;;;;;22.22;34.34;98936.13;5052847;28;45433;-65
2022/04/26 14:34:48;;;;;;;;;8.00;6.50;;;;;22.32;34.56;98928.09;5053735;28;46131;-65
2022/04/26 14:37:15;;;;;;;;;5.60;5.60;;;;;22.47;34.44;98922.16;5054103;28;45345;-66
2022/04/26 14:39:41;;;;;;;;;7.00;7.00;;;;;22.61;34.32;98940.56;5036089;28;45421;-66
2022/04/26 14:42:08;;;;;;;;;6.75;6.00;;;;;22.73;34.75;98935.03;5036287;28;45203;-66
2022/04/26 14:44:34;;;;;;;;;7.40;6.20;;;;;22.82;34.01;98923.44;5058217;28;45655;-65
2022/04/26 14:47:01;;;;;;;;;7.20;6.80;;;;;22.88;34.13;98918.34;5019923;28;45401;-65
2022/04/26 14:49:27;;;;;;;;;6.40;6.40;;;;;22.99;33.60;98933.44;5054720;28;45487;-66
2022/04/26 14:52:02;;;;;;;;;6.50;6.50;;;;;23.06;33.70;98906.84;5054040;28;45463;-65
2022/04/26 14:54:28;;;;;;;;;6.00;6.00;;;;;23.14;33.72;98923.94;5054148;28;45612;-65
2022/04/26 14:56:54;;;;;;;;;5.60;5.20;;;;;23.19;32.76;98928.88;5054081;28;45321;-66
2022/04/26 14:59:22;;;;;;;;;4.40;4.40;;;;;23.15;32.13;98922.09;5041676;28;45313;-66
2022/04/26 15:01:49;;;;;;;;;6.60;5.40;;;;;23.20;33.42;98909.91;5054071;28;45330;-66
2022/04/26 15:04:21;;;;;;;;;4.00;4.00;;;;;23.29;31.55;98910.88;5054021;28;45823;-66
2022/04/26 15:06:47;;;;;;;;;3.20;3.20;;;;;23.35;31.66;98923.72;5054970;28;45258;-66
2022/04/26 15:17:26;;;;;;;;;5.00;5.00;;;;;23.32;31.70;98916.81;5054625;28;45437;-65
2022/04/26 15:19:52;;;;;;;;;4.00;4.00;;;;;23.28;32.03;98918.13;5054127;28;45525;-66
2022/04/26 15:22:20;;;;;;;;;7.25;7.25;;;;;23.27;31.93;98905.66;5020347;28;45300;-66
2022/04/26 15:24:48;;;;;;;;;6.40;6.00;;;;;23.31;31.66;98925.00;5033801;28;45444;-65
2022/04/26 15:27:15;;;;;;;;;6.20;6.20;;;;;23.38;31.94;98923.44;5034060;28;45376;-66
2022/04/26 15:29:42;;;;;;;;;4.80;4.80;;;;;23.48;32.13;98910.78;5034114;28;45473;-65
2022/04/26 15:32:08;;;;;;;;;5.20;5.20;;;;;23.57;31.98;98903.72;5033476;28;45508;-66
2022/04/26 15:34:35;;;;;;;;;6.20;5.60;;;;;23.59;31.72;98921.41;5034273;28;45496;-65
2022/04/26 15:37:01;;;;;;;;;2.20;2.00;;;;;23.58;31.96;98910.78;5033608;28;45487;-65
2022/04/26 15:39:26;;;;;;;;;3.20;2.00;;;;;23.51;30.81;98910.53;5028069;28;45449;-66
2022/04/26 15:41:53;;;;;;;;;4.50;4.00;;;;;23.39;31.73;98900.94;5033571;28;45408;-65
2022/04/26 15:44:19;;;;;;;;;7.00;6.00;;;;;23.31;33.08;98911.56;5035488;28;46097;-70
2022/04/26 15:46:47;;;;;;;;;3.00;3.00;;;;;23.30;32.78;98950.22;5026849;28;45372;-70
2022/04/26 15:49:12;;;;;;;;;6.00;5.40;;;;;23.12;33.28;98899.06;5037540;28;45473;-69
2022/04/26 15:51:41;;;;;;;;;4.50;4.50;;;;;22.78;33.50;98912.16;5048716;28;45620;-69
2022/04/26 15:54:07;;;;;;;;;5.40;5.40;;;;;22.73;34.32;98903.63;5031759;28;46411;-69
2022/04/26 15:56:32;;;;;;;;;2.00;2.00;;;;;22.83;33.72;98903.63;5032169;28;45473;-66
2022/04/26 15:58:59;;;;;;;;;6.00;3.00;;;;;22.71;32.82;98902.06;5033614;28;45383;-66
2022/04/26 16:01:26;;;;;;;;;4.00;4.00;;;;;22.56;33.33;98915.94;5031168;28;45577;-69
2022/04/26 16:03:54;;;;;;;;;6.00;6.00;;;;;22.60;32.91;98940.69;5020914;28;45454;-69
2022/04/26 16:06:21;;;;;;;;;5.00;4.40;;;;;22.63;32.84;98910.81;5030746;28;45474;-68
2022/04/26 16:08:47;;;;;;;;;6.00;6.00;;;;;22.67;33.62;98896.13;5031674;28;45474;-68
2022/04/26 16:22:21;;;;;;;;;4.60;4.00;;;;;22.88;33.23;98917.50;5033057;28;45441;-68
2022/04/26 16:24:48;;;;;;;;;5.00;5.00;;;;;22.87;32.80;98911.25;5055276;28;45438;-67
2022/04/26 16:27:13;;;;;;;;;8.60;7.20;;;;;22.88;33.05;98929.09;5037738;28;45391;-67
2022/04/26 16:29:40;;;;;;;;;6.25;4.50;;;;;22.84;33.13;98918.75;5056233;28;45329;-66
2022/04/26 16:32:07;;;;;;;;;7.00;6.00;;;;;22.85;33.24;98915.94;5036378;28;45603;-64
2022/04/26 16:34:32;;;;;;;;;5.60;4.60;;;;;22.83;33.48;98925.97;5056259;28;46203;-65
2022/04/26 16:37:08;;;;;;;;;6.00;6.00;;;;;22.73;33.51;98924.28;5056132;28;45530;-65
2022/04/26 16:39:33;;;;;;;;;8.00;7.40;;;;;22.67;33.46;98914.94;5056501;28;45512;-65
2022/04/26 16:41:59;;;;;;;;;7.00;6.50;;;;;22.67;33.30;98922.16;5049075;28;45428;-65
2022/04/26 16:44:25;;;;;;;;;7.50;6.75;;;;;22.69;33.72;98912.09;5041307;28;46463;-65
2022/04/26 16:46:50;;;;;;;;;8.00;8.00;;;;;22.71;33.47;98913.66;5054356;28;45438;-65
2022/04/26 16:49:16;;;;;;;;;6.25;6.25;;;;;22.69;34.27;98910.25;5044251;28;45475;-65
2022/04/26 16:51:41;;;;;;;;;5.50;5.00;;;;;22.67;33.70;98922.16;5050477;28;45408;-65
2022/04/26 16:54:07;;;;;;;;;4.25;3.00;;;;;22.59;33.64;98929.09;5056007;28;45832;-68
2022/04/26 16:56:33;;;;;;;;;6.00;5.00;;;;;22.57;34.48;98923.00;5054915;28;45468;-68
2022/04/26 16:58:58;;;;;;;;;7.75;7.00;;;;;22.52;33.33;98927.09;5059031;28;45283;-68
2022/04/26 17:01:33;;;;;;;;;7.00;5.50;;;;;22.41;34.09;98928.09;5056173;28;45497;-69
2022/04/26 17:03:58;;;;;;;;;7.40;6.00;;;;;22.38;33.92;98925.69;5054530;28;45421;-69
2022/04/26 17:06:24;;;;;;;;;10.00;8.75;;;;;22.37;34.56;98924.00;5049182;28;45388;-69
2022/04/26 17:08:59;;;;;;;;;8.00;6.00;;;;;22.38;34.20;98960.63;5055696;28;45500;-69
2022/04/26 17:11:42;;;;;;;;;12.75;9.75;;;;;22.38;34.47;98951.72;5044180;28;45366;-69
2022/04/26 17:14:16;;;;;;;;;6.40;6.00;;;;;22.31;33.89;98945.19;5055987;28;45395;-69
2022/04/26 17:16:44;;;;;;;;;11.00;8.20;;;;;22.16;34.15;98961.69;5053690;28;45348;-69
2022/04/26 17:19:12;;;;;;;;;6.00;6.00;;;;;22.04;35.10;98951.22;5037869;28;45433;-69
2022/04/26 17:21:37;;;;;;;;;6.00;6.00;;;;;21.90;34.93;98949.75;5054045;28;45383;-68
2022/04/26 17:24:04;;;;;;;;;7.00;6.00;;;;;21.84;34.63;98966.41;5043741;28;45387;-68
2022/04/26 17:26:30;;;;;;;;;6.40;6.40;;;;;21.78;35.34;98948.16;5055487;28;45520;-68
2022/04/26 17:28:56;;;;;;;;;9.75;8.75;;;;;21.73;34.99;98958.47;5054400;28;45314;-68
2022/04/26 17:31:22;;;;;;;;;7.00;7.00;;;;;21.72;35.38;98957.59;5055263;28;45393;-68
2022/04/26 17:33:52;;;;;;;;;8.75;8.50;;;;;21.65;35.23;98951.06;5054026;28;45579;-68
2022/04/26 17:36:17;;;;;;;;;8.80;7.00;;;;;21.53;35.26;98947.66;5037726;28;45440;-68
2022/04/26 17:38:43;;;;;;;;;9.75;9.75;;;;;21.36;35.71;98944.72;5053897;28;45636;-68
2022/04/26 17:41:09;;;;;;;;;6.75;6.75;;;;;21.00;35.89;98970.16;5054269;28;45622;-68
2022/04/26 17:43:36;;;;;;;;;5.00;5.00;;;;;20.63;36.22;98969.75;5046402;28;45352;-68